Time;durP1;ratioP1;P1;durP2;ratioP2;P2;SDS_P1;SDS_P2;PMS_P1;PMS_P2;Temp;Humidity;BMP_temperature;BMP_pressure;BME280_temperature;BME280_humidity;BME280_pressure;Samples;Min_cycle;Max_cycle;Signal;HPM_P1;HPM_P2
2022/10/28 00:01:17;;;;;;;2.87;2.67;;;21.70;49.30;;;;;;5036878;28;20213;-64
2022/10/28 00:03:45;;;;;;;2.40;2.30;;;21.70;49.40;;;;;;5041209;28;20464;-64
2022/10/28 00:06:13;;;;;;;2.20;2.10;;;21.60;49.20;;;;;;5040340;28;20459;-65
2022/10/28 00:08:39;;;;;;;2.30;2.20;;;21.70;49.40;;;;;;5039382;28;20455;-65
2022/10/28 00:11:08;;;;;;;2.80;2.63;;;21.70;49.30;;;;;;5035058;28;20495;-63
2022/10/28 00:13:35;;;;;;;2.40;2.20;;;21.70;49.30;;;;;;5035006;28;20308;-63
2022/10/28 00:16:10;;;;;;;2.60;2.40;;;21.70;49.30;;;;;;5030406;28;20459;-63
2022/10/28 00:18:36;;;;;;;2.60;2.40;;;21.70;49.40;;;;;;5038552;28;20474;-63
2022/10/28 00:21:06;;;;;;;2.30;2.20;;;21.70;49.30;;;;;;5032648;28;20451;-63
2022/10/28 00:23:32;;;;;;;2.80;2.60;;;21.70;49.30;;;;;;5041616;28;20469;-65
2022/10/28 00:26:10;;;;;;;2.40;2.30;;;21.70;49.30;;;;;;5031832;28;20948;-64
2022/10/28 00:28:44;;;;;;;2.47;2.37;;;21.70;49.30;;;;;;5032464;28;20229;-64
2022/10/28 00:31:11;;;;;;;2.47;2.27;;;21.70;49.30;;;;;;5039979;28;20476;-65
2022/10/28 00:33:37;;;;;;;2.60;2.50;;;21.70;49.30;;;;;;5043912;28;20466;-65
2022/10/28 00:36:11;;;;;;;2.40;2.20;;;21.70;50.10;;;;;;5038692;28;20436;-60
2022/10/28 00:38:38;;;;;;;2.83;2.63;;;21.70;49.30;;;;;;5044660;28;21109;-63
2022/10/28 00:41:03;;;;;;;2.93;2.73;;;21.70;49.30;;;;;;5027285;28;20451;-64
2022/10/28 00:43:35;;;;;;;2.67;2.47;;;21.70;49.30;;;;;;5047036;28;20462;-64
2022/10/28 00:46:02;;;;;;;3.03;2.83;;;21.70;49.30;;;;;;5041614;28;20226;-63
2022/10/28 00:48:28;;;;;;;2.40;2.30;;;21.70;49.40;;;;;;5044588;28;20497;-64
2022/10/28 00:50:54;;;;;;;2.23;2.13;;;21.60;49.30;;;;;;5039021;28;20475;-65
2022/10/28 00:53:29;;;;;;;2.60;2.40;;;21.70;49.40;;;;;;5023184;28;20249;-63
2022/10/28 00:55:59;;;;;;;2.83;2.57;;;21.70;49.40;;;;;;5042605;28;20245;-61
2022/10/28 00:58:25;;;;;;;2.23;2.13;;;21.70;49.40;;;;;;5039153;28;20451;-64
2022/10/28 01:00:51;;;;;;;2.30;2.20;;;21.70;49.40;;;;;;5034798;28;20469;-60
2022/10/28 01:03:17;;;;;;;2.47;2.30;;;21.60;49.30;;;;;;5041980;28;20455;-65
2022/10/28 01:05:46;;;;;;;2.60;2.40;;;21.70;49.40;;;;;;5039991;28;20234;-61
2022/10/28 01:08:12;;;;;;;2.37;2.27;;;21.70;49.40;;;;;;5044144;28;20553;-64
2022/10/28 01:11:05;;;;;;;2.73;2.53;;;21.70;49.50;;;;;;5032266;28;20816;-64
2022/10/28 01:13:41;;;;;;;2.57;2.37;;;21.70;50.20;;;;;;5036684;28;20446;-65
2022/10/28 01:16:44;;;;;;;2.33;2.13;;;21.70;49.50;;;;;;5039897;28;20471;-63
2022/10/28 01:19:28;;;;;;;2.10;2.00;;;21.70;49.40;;;;;;5043914;28;20451;-63
2022/10/28 01:22:18;;;;;;;2.23;2.10;;;21.60;49.30;;;;;;5039846;28;20469;-65
2022/10/28 01:25:17;;;;;;;2.40;2.30;;;21.60;49.30;;;;;;5032803;28;20818;-61
2022/10/28 01:28:13;;;;;;;2.97;2.77;;;21.60;49.30;;;;;;5034608;28;20592;-65
2022/10/28 01:31:16;;;;;;;2.10;2.00;;;21.60;49.40;;;;;;5030594;28;20469;-60
2022/10/28 01:34:19;;;;;;;2.20;2.10;;;21.60;49.40;;;;;;5042595;28;20569;-63
2022/10/28 01:36:55;;;;;;;2.27;2.17;;;21.60;49.40;;;;;;5035928;28;21027;-64
2022/10/28 01:39:33;;;;;;;3.10;2.90;;;21.60;49.50;;;;;;5038828;28;20982;-65
2022/10/28 01:42:24;;;;;;;2.43;2.30;;;21.60;49.30;;;;;;5041325;28;20503;-63
2022/10/28 01:45:09;;;;;;;2.20;2.10;;;21.60;49.30;;;;;;5040171;28;20458;-63
2022/10/28 01:47:46;;;;;;;2.47;2.37;;;21.60;49.40;;;;;;5042716;28;20433;-64
2022/10/28 01:50:22;;;;;;;2.63;2.53;;;21.60;49.40;;;;;;5036769;28;20546;-64
2022/10/28 01:52:50;;;;;;;2.57;2.37;;;21.60;49.40;;;;;;5043330;28;20443;-65
2022/10/28 01:55:25;;;;;;;2.63;2.43;;;21.60;50.10;;;;;;5043014;28;21150;-63
2022/10/28 01:57:55;;;;;;;2.80;2.60;;;21.60;49.40;;;;;;5043398;28;20476;-64
2022/10/28 02:00:21;;;;;;;2.30;2.10;;;21.60;49.40;;;;;;5043303;28;20498;-65
2022/10/28 02:02:48;;;;;;;2.50;2.30;;;21.60;49.30;;;;;;5041027;28;21042;-64
2022/10/28 02:05:51;;;;;;;2.43;2.23;;;21.60;49.50;;;;;;5040183;28;20233;-64
2022/10/28 02:08:17;;;;;;;2.27;2.10;;;21.60;49.50;;;;;;5020525;28;20430;-60
2022/10/28 02:10:57;;;;;;;2.20;2.10;;;21.60;49.40;;;;;;5036336;28;20524;-62
2022/10/28 02:13:32;;;;;;;2.67;2.47;;;21.60;49.50;;;;;;5038484;28;20213;-63
2022/10/28 02:16:11;;;;;;;2.53;2.33;;;21.60;49.40;;;;;;5039972;28;20972;-65
2022/10/28 02:18:43;;;;;;;2.50;2.30;;;21.60;49.40;;;;;;5037615;28;20494;-64
2022/10/28 02:21:19;;;;;;;2.43;2.20;;;21.60;49.50;;;;;;5023628;28;20803;-62
2022/10/28 02:23:55;;;;;;;2.20;2.10;;;21.60;49.40;;;;;;5041771;28;20458;-65
2022/10/28 02:26:32;;;;;;;2.40;2.20;;;21.60;49.50;;;;;;5034735;28;20482;-65
2022/10/28 02:29:15;;;;;;;2.53;2.33;;;21.60;49.50;;;;;;5042536;28;20434;-63
2022/10/28 02:31:52;;;;;;;2.37;2.27;;;21.60;49.50;;;;;;5041307;28;20522;-63
2022/10/28 02:34:24;;;;;;;2.57;2.37;;;21.60;49.40;;;;;;5043429;28;20504;-61
2022/10/28 02:36:53;;;;;;;3.10;2.30;;;21.60;49.50;;;;;;5041187;28;20455;-65
2022/10/28 02:39:25;;;;;;;2.27;2.17;;;21.60;49.40;;;;;;5044263;28;20459;-65
2022/10/28 02:42:07;;;;;;;2.10;2.00;;;21.60;49.40;;;;;;5040887;28;20509;-63
2022/10/28 02:44:43;;;;;;;2.43;2.33;;;21.60;49.40;;;;;;5043294;28;20454;-65
2022/10/28 02:47:18;;;;;;;2.00;1.90;;;21.60;49.40;;;;;;5042075;28;20462;-64
2022/10/28 02:49:50;;;;;;;2.80;2.60;;;21.60;49.40;;;;;;5043101;28;20442;-65
2022/10/28 02:52:18;;;;;;;2.60;2.40;;;21.60;49.40;;;;;;5040529;28;20471;-61
2022/10/28 02:54:52;;;;;;;2.60;2.40;;;21.60;49.50;;;;;;5043159;28;21274;-65
2022/10/28 02:57:24;;;;;;;2.60;2.40;;;21.60;49.40;;;;;;5035177;28;20463;-65
2022/10/28 03:00:01;;;;;;;2.33;2.17;;;21.60;49.50;;;;;;5039086;28;20462;-63
2022/10/28 03:02:27;;;;;;;2.60;2.40;;;21.60;49.40;;;;;;5033554;28;20452;-66
2022/10/28 03:04:53;;;;;;;3.43;2.37;;;21.60;49.40;;;;;;5041511;28;20482;-64
2022/10/28 03:07:19;;;;;;;2.43;2.23;;;21.60;49.40;;;;;;5038747;28;20437;-65
2022/10/28 03:09:44;;;;;;;2.50;2.40;;;21.60;49.40;;;;;;5041246;28;20269;-63
2022/10/28 03:12:10;;;;;;;2.50;2.30;;;21.60;49.50;;;;;;5037409;28;20275;-64
2022/10/28 03:14:35;;;;;;;2.60;2.50;;;21.60;49.50;;;;;;5037592;28;20275;-63
2022/10/28 03:17:01;;;;;;;2.40;2.10;;;21.60;49.40;;;;;;5037236;28;20214;-58
2022/10/28 03:19:26;;;;;;;3.07;2.87;;;21.60;49.40;;;;;;5028202;28;20222;-66
2022/10/28 03:21:52;;;;;;;3.00;2.80;;;21.60;49.40;;;;;;5034091;28;20742;-61
2022/10/28 03:24:18;;;;;;;2.37;2.27;;;21.60;49.50;;;;;;5025382;28;20227;-65
2022/10/28 03:26:43;;;;;;;2.63;2.53;;;21.60;49.50;;;;;;5039239;28;20234;-64
2022/10/28 03:29:09;;;;;;;2.30;2.20;;;21.60;49.60;;;;;;5037496;28;20237;-64
2022/10/28 03:31:34;;;;;;;2.57;2.47;;;21.60;49.40;;;;;;5039695;28;20785;-64
2022/10/28 03:34:00;;;;;;;2.67;2.50;;;21.60;49.40;;;;;;5039223;28;20222;-65
2022/10/28 03:36:25;;;;;;;2.23;2.13;;;21.60;49.40;;;;;;5040782;28;20240;-65
2022/10/28 03:38:51;;;;;;;2.93;2.70;;;21.60;49.40;;;;;;5040140;28;20218;-60
2022/10/28 03:41:16;;;;;;;2.23;2.13;;;21.60;49.40;;;;;;5037889;28;20581;-64
2022/10/28 03:43:42;;;;;;;2.33;2.23;;;21.60;49.50;;;;;;5041067;28;20230;-64
2022/10/28 03:46:07;;;;;;;2.30;2.20;;;21.60;49.40;;;;;;5040976;28;20658;-63
2022/10/28 03:48:33;;;;;;;2.90;2.70;;;21.60;49.50;;;;;;5039902;28;20626;-60
2022/10/28 03:50:58;;;;;;;4.93;2.80;;;21.60;49.40;;;;;;5040092;28;22875;-65
2022/10/28 03:53:24;;;;;;;2.10;2.00;;;21.60;49.50;;;;;;5042292;28;20688;-62
2022/10/28 03:56:00;;;;;;;3.37;2.27;;;21.60;49.40;;;;;;5040767;28;20237;-64
2022/10/28 03:58:26;;;;;;;2.30;2.20;;;21.60;49.50;;;;;;5041487;28;20217;-60
2022/10/28 04:00:52;;;;;;;2.30;2.20;;;21.60;49.50;;;;;;5037252;28;20458;-65
2022/10/28 04:03:19;;;;;;;2.43;2.23;;;21.60;49.40;;;;;;5036369;28;20287;-65
2022/10/28 04:05:47;;;;;;;2.50;2.30;;;21.60;49.40;;;;;;5040624;28;20519;-62
2022/10/28 04:08:13;;;;;;;2.27;2.13;;;21.60;49.40;;;;;;5036749;28;20455;-63
2022/10/28 04:10:38;;;;;;;2.53;2.43;;;21.60;49.40;;;;;;5037100;28;20497;-63
2022/10/28 04:13:05;;;;;;;2.20;2.10;;;21.60;49.30;;;;;;5042631;28;20490;-64
2022/10/28 04:15:30;;;;;;;2.50;2.40;;;21.60;49.30;;;;;;5032910;28;20310;-65
2022/10/28 04:17:56;;;;;;;2.70;2.50;;;21.60;49.40;;;;;;5036753;28;20530;-61
2022/10/28 04:20:22;;;;;;;44.83;3.57;;;21.60;49.40;;;;;;5027830;28;20582;-62
2022/10/28 04:22:48;;;;;;;2.70;2.50;;;21.60;49.40;;;;;;5028610;28;20268;-64
2022/10/28 04:25:14;;;;;;;2.27;2.13;;;21.60;49.40;;;;;;5024635;28;20224;-61
2022/10/28 04:27:39;;;;;;;2.30;2.20;;;21.60;49.40;;;;;;5035310;28;20300;-62
2022/10/28 04:30:06;;;;;;;2.73;2.50;;;21.60;49.40;;;;;;5039523;28;20289;-64
2022/10/28 04:32:31;;;;;;;2.60;2.40;;;21.60;49.30;;;;;;5041746;28;20222;-65
2022/10/28 04:34:57;;;;;;;2.73;2.53;;;21.60;49.30;;;;;;5040897;28;20538;-62
2022/10/28 04:37:22;;;;;;;3.00;2.40;;;21.70;49.30;;;;;;5039647;28;20325;-63
2022/10/28 04:39:48;;;;;;;2.40;2.30;;;21.70;49.30;;;;;;5037352;28;20686;-61
2022/10/28 04:42:13;;;;;;;2.57;2.20;;;21.70;49.30;;;;;;5031382;28;20332;-63
2022/10/28 04:44:39;;;;;;;2.60;2.50;;;21.70;49.20;;;;;;5037379;28;20771;-61
2022/10/28 04:47:05;;;;;;;2.47;2.27;;;21.70;49.20;;;;;;5034037;28;20225;-63
2022/10/28 04:49:30;;;;;;;2.50;2.27;;;21.70;49.30;;;;;;5027001;28;20272;-63
2022/10/28 04:51:56;;;;;;;2.60;2.40;;;21.70;50.00;;;;;;5028644;28;20583;-63
2022/10/28 04:54:21;;;;;;;2.20;2.10;;;21.70;49.20;;;;;;5033087;28;20748;-60
2022/10/28 04:56:47;;;;;;;2.67;2.50;;;21.70;49.20;;;;;;5034679;28;20686;-64
2022/10/28 04:59:12;;;;;;;2.13;2.03;;;21.70;49.20;;;;;;5027755;28;20331;-59
2022/10/28 05:01:38;;;;;;;2.40;2.30;;;21.70;50.00;;;;;;5023962;28;20238;-60
2022/10/28 05:04:03;;;;;;;2.80;2.60;;;21.70;49.20;;;;;;5037130;28;20238;-64
2022/10/28 05:06:29;;;;;;;2.13;2.03;;;21.70;49.20;;;;;;5036567;28;20261;-62
2022/10/28 05:08:54;;;;;;;2.80;2.60;;;21.70;49.20;;;;;;5028005;28;20218;-62
2022/10/28 05:11:20;;;;;;;2.33;2.20;;;21.70;49.20;;;;;;5026265;28;20274;-59
2022/10/28 05:13:46;;;;;;;2.20;2.10;;;21.70;49.20;;;;;;5031114;28;20319;-60
2022/10/28 05:16:11;;;;;;;2.73;2.53;;;21.70;49.30;;;;;;5032570;28;20315;-63
2022/10/28 05:18:37;;;;;;;2.60;2.40;;;21.70;49.20;;;;;;5035411;28;20878;-63
2022/10/28 05:21:02;;;;;;;3.30;2.30;;;21.70;49.20;;;;;;5026202;28;20313;-63
2022/10/28 05:23:28;;;;;;;2.53;2.30;;;21.70;49.20;;;;;;5021446;28;20222;-62
2022/10/28 05:25:54;;;;;;;2.13;2.03;;;21.80;49.30;;;;;;5029480;28;20221;-62
2022/10/28 05:28:20;;;;;;;2.40;2.30;;;21.70;49.20;;;;;;5024650;28;20317;-60
2022/10/28 05:30:46;;;;;;;2.73;2.23;;;21.70;49.20;;;;;;5026362;28;20584;-62
2022/10/28 05:33:11;;;;;;;2.77;2.63;;;21.70;49.20;;;;;;5023898;28;20531;-61
2022/10/28 05:35:38;;;;;;;2.70;2.50;;;21.70;49.30;;;;;;5015858;28;20221;-63
2022/10/28 05:38:03;;;;;;;2.50;2.40;;;21.70;49.30;;;;;;5015465;28;20229;-60
2022/10/28 05:40:31;;;;;;;3.00;2.17;;;21.70;49.30;;;;;;5024435;28;20450;-59
2022/10/28 05:42:57;;;;;;;2.40;2.30;;;21.70;49.30;;;;;;5026851;28;20275;-62
2022/10/28 05:45:23;;;;;;;2.90;2.70;;;21.70;49.30;;;;;;5024184;28;20878;-60
2022/10/28 05:47:48;;;;;;;2.67;2.47;;;21.70;49.30;;;;;;5026285;28;20214;-62
2022/10/28 05:50:16;;;;;;;3.33;2.70;;;21.70;49.30;;;;;;5025373;28;20249;-62
2022/10/28 05:52:49;;;;;;;2.10;2.00;;;21.70;49.30;;;;;;5021404;28;20240;-63
2022/10/28 05:55:18;;;;;;;2.77;2.57;;;21.70;49.30;;;;;;5030327;28;23042;-63
2022/10/28 05:57:44;;;;;;;2.63;2.43;;;21.70;49.30;;;;;;5023522;28;20617;-65
2022/10/28 06:00:10;;;;;;;3.37;2.73;;;21.70;49.30;;;;;;5028312;28;20473;-61
2022/10/28 06:02:36;;;;;;;2.80;2.57;;;21.70;49.30;;;;;;5032787;28;20478;-59
2022/10/28 06:05:02;;;;;;;2.60;2.50;;;21.70;49.30;;;;;;5028965;28;20815;-60
2022/10/28 06:07:28;;;;;;;2.60;2.50;;;21.70;49.30;;;;;;5035207;28;20602;-62
2022/10/28 06:09:54;;;;;;;2.03;1.93;;;21.70;49.30;;;;;;5034466;28;20519;-61
2022/10/28 06:12:19;;;;;;;2.50;2.33;;;21.70;49.30;;;;;;5036246;28;20538;-62
2022/10/28 06:14:45;;;;;;;2.93;2.73;;;21.70;49.40;;;;;;5035112;28;20789;-58
2022/10/28 06:17:10;;;;;;;2.63;2.43;;;21.70;49.30;;;;;;5028881;28;20685;-58
2022/10/28 06:19:36;;;;;;;2.30;2.20;;;21.70;49.40;;;;;;5035235;28;20213;-59
2022/10/28 06:22:01;;;;;;;2.50;2.30;;;21.70;49.50;;;;;;5033698;28;20670;-64
2022/10/28 06:24:27;;;;;;;2.50;2.30;;;21.70;49.30;;;;;;5036219;28;20222;-61
2022/10/28 06:26:52;;;;;;;2.60;2.40;;;21.70;49.30;;;;;;5033116;28;20295;-62
2022/10/28 06:29:19;;;;;;;2.30;2.20;;;21.70;49.30;;;;;;5028938;28;20232;-64
2022/10/28 06:31:45;;;;;;;3.07;2.50;;;21.70;49.30;;;;;;5026213;28;20245;-58
2022/10/28 06:34:11;;;;;;;2.33;2.13;;;21.70;49.30;;;;;;5032947;28;20459;-63
2022/10/28 06:36:37;;;;;;;2.50;2.40;;;21.70;49.30;;;;;;5043818;28;20528;-62
2022/10/28 06:39:03;;;;;;;2.97;2.77;;;21.70;49.30;;;;;;5033452;28;21267;-62
2022/10/28 06:41:29;;;;;;;2.47;2.10;;;21.70;49.30;;;;;;5032719;28;20554;-63
2022/10/28 06:43:54;;;;;;;3.10;2.50;;;21.70;49.30;;;;;;5035669;28;20218;-63
2022/10/28 06:46:20;;;;;;;2.70;2.50;;;21.80;49.40;;;;;;5031242;28;20278;-63
2022/10/28 06:48:45;;;;;;;2.80;2.30;;;21.70;49.30;;;;;;5044280;28;20742;-60
2022/10/28 06:51:11;;;;;;;2.70;2.50;;;21.80;49.40;;;;;;5025280;28;20249;-63
2022/10/28 06:53:37;;;;;;;2.97;2.50;;;21.80;49.40;;;;;;5036123;28;20613;-62
2022/10/28 06:56:03;;;;;;;3.33;3.03;;;21.80;49.50;;;;;;5033255;28;20325;-62
2022/10/28 06:58:28;;;;;;;2.80;1.97;;;21.80;49.40;;;;;;5034324;28;20229;-61
2022/10/28 07:00:54;;;;;;;2.63;2.53;;;21.70;49.30;;;;;;5029528;28;20480;-60
2022/10/28 07:03:20;;;;;;;3.60;3.30;;;21.80;49.40;;;;;;5036277;28;20222;-64
2022/10/28 07:05:48;;;;;;;3.17;2.97;;;21.80;49.40;;;;;;5026417;28;20272;-62
2022/10/28 07:08:13;;;;;;;2.40;2.20;;;21.80;49.50;;;;;;5033212;28;20260;-64
2022/10/28 07:10:39;;;;;;;3.00;2.33;;;21.80;49.40;;;;;;5032444;28;20472;-63
2022/10/28 07:13:05;;;;;;;2.70;2.50;;;21.80;49.40;;;;;;5020582;28;20222;-62
2022/10/28 07:15:31;;;;;;;2.10;2.00;;;21.70;49.30;;;;;;5013508;28;20474;-63
2022/10/28 07:17:58;;;;;;;2.43;2.23;;;21.70;49.50;;;;;;5038117;28;20226;-63
2022/10/28 07:20:25;;;;;;;2.47;2.27;;;21.80;49.40;;;;;;5040972;28;20447;-64
2022/10/28 07:22:59;;;;;;;2.40;2.30;;;21.80;49.40;;;;;;5040500;28;20437;-64
2022/10/28 07:25:25;;;;;;;2.40;2.30;;;21.80;49.40;;;;;;5036157;28;21030;-62
2022/10/28 07:27:51;;;;;;;2.70;2.27;;;21.80;49.40;;;;;;5038282;28;20451;-62
2022/10/28 07:30:17;;;;;;;3.80;2.20;;;21.80;49.50;;;;;;5008785;28;20593;-62
2022/10/28 07:32:42;;;;;;;3.07;2.40;;;21.80;49.40;;;;;;5023407;28;20283;-64
2022/10/28 07:35:08;;;;;;;2.13;2.03;;;21.80;49.40;;;;;;5029092;28;20229;-64
2022/10/28 07:37:33;;;;;;;2.80;2.17;;;21.80;49.50;;;;;;5026307;28;20218;-59
2022/10/28 07:39:59;;;;;;;2.53;2.33;;;21.80;49.50;;;;;;5023605;28;20230;-58
2022/10/28 07:42:24;;;;;;;2.80;2.60;;;21.80;49.50;;;;;;5021040;28;20223;-60
2022/10/28 07:44:50;;;;;;;2.50;2.30;;;21.70;49.40;;;;;;5023345;28;20862;-64
2022/10/28 07:47:16;;;;;;;5.57;2.53;;;21.80;49.40;;;;;;5024138;28;20232;-57
2022/10/28 07:49:42;;;;;;;2.40;2.20;;;21.80;49.50;;;;;;5026139;28;20229;-63
2022/10/28 07:52:08;;;;;;;2.27;2.13;;;21.80;49.50;;;;;;5025391;28;20447;-60
2022/10/28 07:54:34;;;;;;;2.13;2.03;;;21.80;49.50;;;;;;5029280;28;20458;-63
2022/10/28 07:56:59;;;;;;;2.60;2.40;;;21.70;49.40;;;;;;5026451;28;20463;-58
2022/10/28 07:59:25;;;;;;;2.90;2.70;;;21.80;49.40;;;;;;5027589;28;20211;-64
2022/10/28 08:01:50;;;;;;;2.43;2.33;;;21.80;49.40;;;;;;5033990;28;20716;-64
2022/10/28 08:04:16;;;;;;;3.27;2.83;;;21.80;49.50;;;;;;5027029;28;20249;-61
2022/10/28 08:06:43;;;;;;;3.13;2.37;;;21.80;49.50;;;;;;5037169;28;20219;-63
2022/10/28 08:09:08;;;;;;;2.43;2.23;;;21.80;49.50;;;;;;5034037;28;20214;-65
2022/10/28 08:11:34;;;;;;;2.40;2.20;;;21.80;49.50;;;;;;5038091;28;20438;-63
2022/10/28 08:14:00;;;;;;;3.30;2.40;;;21.80;49.50;;;;;;5039609;28;20221;-66
2022/10/28 08:16:27;;;;;;;2.30;2.20;;;21.80;49.50;;;;;;5040929;28;20221;-61
2022/10/28 08:18:54;;;;;;;3.77;2.87;;;21.80;49.50;;;;;;5019810;28;20513;-62
2022/10/28 08:21:19;;;;;;;2.33;2.23;;;21.80;49.50;;;;;;5039899;28;21000;-62
2022/10/28 08:23:45;;;;;;;2.40;2.20;;;21.80;49.50;;;;;;5041078;28;20477;-63
2022/10/28 08:26:12;;;;;;;2.30;2.10;;;21.80;49.50;;;;;;5040801;28;20230;-61
2022/10/28 08:28:39;;;;;;;2.70;2.57;;;21.70;49.40;;;;;;5041290;28;20215;-58
2022/10/28 08:31:07;;;;;;;3.00;2.80;;;21.80;49.50;;;;;;5037724;28;20463;-61
2022/10/28 08:33:34;;;;;;;2.40;2.20;;;21.80;49.50;;;;;;5036581;28;20465;-60
2022/10/28 08:35:59;;;;;;;2.33;2.23;;;21.70;49.40;;;;;;5030909;28;20617;-62
2022/10/28 08:38:25;;;;;;;3.00;2.70;;;21.70;49.40;;;;;;5034945;28;20447;-63
2022/10/28 08:41:02;;;;;;;2.73;2.53;;;21.70;49.40;;;;;;5035495;28;20236;-63
2022/10/28 08:43:36;;;;;;;2.10;2.00;;;21.80;49.50;;;;;;5035443;28;20217;-63
2022/10/28 08:46:41;;;;;;;3.10;2.90;;;21.70;49.50;;;;;;5028218;28;20450;-63
2022/10/28 08:49:11;;;;;;;2.67;2.13;;;21.70;49.50;;;;;;5045792;28;20821;-63
2022/10/28 08:51:54;;;;;;;5.30;2.60;;;21.70;49.50;;;;;;5041498;28;20494;-63
2022/10/28 08:54:28;;;;;;;2.40;2.30;;;21.70;49.50;;;;;;5042029;28;20459;-62
2022/10/28 08:56:58;;;;;;;2.30;2.10;;;21.70;49.50;;;;;;5038890;28;20469;-63
2022/10/28 08:59:31;;;;;;;3.10;2.90;;;21.70;49.50;;;;;;5033175;28;20455;-63
2022/10/28 09:02:00;;;;;;;3.20;2.60;;;21.70;49.50;;;;;;5038542;28;20437;-62
2022/10/28 09:04:28;;;;;;;2.47;2.33;;;21.70;49.50;;;;;;5028374;28;20482;-59
2022/10/28 09:06:54;;;;;;;2.27;2.10;;;21.70;49.50;;;;;;5036530;28;20452;-63
2022/10/28 09:09:21;;;;;;;2.60;2.40;;;21.70;49.50;;;;;;5034323;28;20459;-62
2022/10/28 09:11:52;;;;;;;2.53;2.43;;;21.70;49.50;;;;;;5033513;28;20475;-62
2022/10/28 09:14:38;;;;;;;2.40;2.30;;;21.70;49.50;;;;;;5032998;28;20561;-62
2022/10/28 09:17:18;;;;;;;2.50;2.30;;;21.70;49.50;;;;;;5032273;28;20479;-59
2022/10/28 09:19:52;;;;;;;2.00;1.90;;;21.70;49.50;;;;;;5037423;28;20493;-62
2022/10/28 09:22:22;;;;;;;2.23;2.13;;;21.80;49.60;;;;;;5040253;28;20966;-59
2022/10/28 09:25:00;;;;;;;2.30;2.10;;;21.80;49.50;;;;;;5037660;28;20547;-62
2022/10/28 09:27:52;;;;;;;2.20;1.97;;;21.80;49.50;;;;;;5040802;28;20466;-61
2022/10/28 09:30:37;;;;;;;2.80;2.60;;;21.80;49.50;;;;;;5038438;28;20533;-60
2022/10/28 09:33:17;;;;;;;2.33;2.23;;;21.70;49.50;;;;;;5026092;28;20446;-61
2022/10/28 09:35:46;;;;;;;2.63;2.43;;;21.80;49.60;;;;;;5042736;28;20554;-62
2022/10/28 09:38:35;;;;;;;2.57;2.37;;;21.80;49.60;;;;;;5041524;28;20463;-62
2022/10/28 09:41:05;;;;;;;3.30;2.50;;;21.80;49.50;;;;;;5040003;28;20684;-61
2022/10/28 09:43:34;;;;;;;3.20;2.40;;;21.80;49.50;;;;;;5040578;28;20484;-62
2022/10/28 09:46:11;;;;;;;3.60;2.70;;;21.70;49.50;;;;;;5037622;28;20491;-62
2022/10/28 09:48:40;;;;;;;2.70;2.50;;;21.80;49.60;;;;;;5037678;28;20454;-62
2022/10/28 09:51:18;;;;;;;2.87;2.67;;;21.80;49.60;;;;;;5025401;28;20550;-58
2022/10/28 09:53:58;;;;;;;3.50;3.30;;;21.80;49.50;;;;;;5030400;28;20534;-63
2022/10/28 09:56:25;;;;;;;3.93;3.73;;;21.80;49.60;;;;;;5022686;28;22179;-61
2022/10/28 09:58:52;;;;;;;3.50;3.17;;;21.80;49.60;;;;;;5027086;28;20581;-62
2022/10/28 10:01:18;;;;;;;3.30;3.10;;;21.80;49.60;;;;;;5023320;28;20514;-61
2022/10/28 10:03:47;;;;;;;3.30;3.00;;;21.80;49.50;;;;;;5026145;28;21208;-64
2022/10/28 10:06:27;;;;;;;3.43;3.23;;;21.80;49.50;;;;;;5024572;28;20558;-63
2022/10/28 10:08:56;;;;;;;3.60;3.30;;;21.80;49.60;;;;;;5007504;28;20469;-61
2022/10/28 10:11:37;;;;;;;4.23;3.93;;;21.80;49.60;;;;;;5018873;28;20467;-62
2022/10/28 10:14:08;;;;;;;3.77;3.23;;;21.80;49.60;;;;;;5037893;28;20962;-62
2022/10/28 10:16:52;;;;;;;4.00;3.80;;;21.80;49.60;;;;;;5035326;28;20451;-61
2022/10/28 10:19:18;;;;;;;4.53;4.13;;;21.80;49.60;;;;;;5037021;28;20482;-61
2022/10/28 10:21:53;;;;;;;5.43;3.90;;;21.80;49.60;;;;;;5036915;28;20463;-63
2022/10/28 10:24:34;;;;;;;4.90;3.80;;;21.80;49.60;;;;;;5037759;28;20235;-61
2022/10/28 10:27:20;;;;;;;5.13;4.67;;;21.80;49.60;;;;;;5033653;28;20460;-63
2022/10/28 10:29:51;;;;;;;4.67;4.30;;;21.80;49.60;;;;;;5036946;28;20459;-61
2022/10/28 10:32:32;;;;;;;4.53;4.23;;;21.80;49.60;;;;;;5029869;28;21012;-62
2022/10/28 10:35:03;;;;;;;4.63;4.03;;;21.80;49.50;;;;;;5037987;28;20490;-62
2022/10/28 10:37:31;;;;;;;4.30;3.90;;;21.80;49.60;;;;;;5037600;28;20443;-62
2022/10/28 10:40:04;;;;;;;5.60;5.10;;;21.80;49.70;;;;;;5030174;28;20904;-59
2022/10/28 10:42:30;;;;;;;5.47;4.17;;;21.80;49.60;;;;;;5040236;28;20456;-62
2022/10/28 10:45:01;;;;;;;4.90;4.60;;;21.80;49.60;;;;;;5033390;28;20454;-60
2022/10/28 10:47:26;;;;;;;5.67;4.57;;;21.80;49.60;;;;;;5038874;28;20234;-62
2022/10/28 10:49:55;;;;;;;4.80;4.40;;;21.80;49.60;;;;;;5039390;28;20443;-62
2022/10/28 10:52:24;;;;;;;5.37;4.97;;;21.80;49.60;;;;;;5040585;28;20260;-62
2022/10/28 10:55:06;;;;;;;4.70;4.40;;;21.80;49.60;;;;;;5022965;28;20984;-60
2022/10/28 10:57:33;;;;;;;5.17;4.70;;;21.80;49.60;;;;;;5040125;28;20536;-60
2022/10/28 10:59:59;;;;;;;5.30;4.90;;;21.80;49.60;;;;;;5039806;28;20447;-60
2022/10/28 11:02:35;;;;;;;5.70;5.00;;;21.80;49.60;;;;;;5000734;28;20447;-62
2022/10/28 11:05:09;;;;;;;4.90;4.37;;;21.80;49.60;;;;;;5035846;28;20913;-61
2022/10/28 11:07:36;;;;;;;5.23;4.80;;;21.80;49.60;;;;;;5032759;28;20455;-62
2022/10/28 11:10:02;;;;;;;5.43;4.80;;;21.80;49.60;;;;;;5052874;28;20459;-63
2022/10/28 11:12:35;;;;;;;5.23;4.70;;;21.80;49.60;;;;;;5035667;28;20434;-62
2022/10/28 11:15:03;;;;;;;5.40;5.00;;;21.80;49.60;;;;;;5036402;28;20524;-63
2022/10/28 11:17:31;;;;;;;6.50;5.87;;;21.80;49.60;;;;;;5035793;28;20519;-62
2022/10/28 11:19:59;;;;;;;6.13;5.63;;;21.80;49.60;;;;;;5032341;28;20896;-58
2022/10/28 11:22:30;;;;;;;5.47;5.07;;;21.80;50.40;;;;;;5033299;28;20459;-58
2022/10/28 11:25:14;;;;;;;5.47;5.10;;;21.80;49.60;;;;;;5028470;28;20558;-61
2022/10/28 11:28:03;;;;;;;7.40;4.87;;;21.80;49.70;;;;;;5030627;28;20963;-62
2022/10/28 11:30:58;;;;;;;5.37;5.00;;;21.80;49.60;;;;;;5034167;28;20475;-63
2022/10/28 11:34:15;;;;;;;5.63;5.17;;;21.80;49.60;;;;;;5038620;28;20439;-61
2022/10/28 11:36:49;;;;;;;6.50;5.60;;;21.80;49.60;;;;;;5032834;28;20456;-62
2022/10/28 11:39:19;;;;;;;6.03;5.50;;;21.80;49.70;;;;;;5037284;28;21075;-61
2022/10/28 11:41:58;;;;;;;6.73;6.17;;;21.80;49.70;;;;;;5027591;28;20478;-63
2022/10/28 11:44:36;;;;;;;6.60;5.60;;;21.80;49.70;;;;;;5037052;28;20477;-60
2022/10/28 11:47:31;;;;;;;6.77;6.27;;;21.80;49.60;;;;;;5022264;28;21000;-61
2022/10/28 11:50:07;;;;;;;6.20;5.60;;;21.80;49.60;;;;;;5029350;28;20510;-63
2022/10/28 11:53:06;;;;;;;5.77;5.30;;;21.80;49.70;;;;;;5032754;28;20512;-60
2022/10/28 11:55:41;;;;;;;6.60;5.40;;;21.80;49.70;;;;;;5021103;28;20443;-62
2022/10/28 11:58:35;;;;;;;5.90;5.40;;;21.80;49.70;;;;;;5030853;28;20463;-63
2022/10/28 12:01:06;;;;;;;7.07;6.07;;;21.80;49.70;;;;;;5022725;28;20512;-63
2022/10/28 12:04:06;;;;;;;7.43;6.70;;;21.80;49.70;;;;;;5018071;28;20444;-58
2022/10/28 12:06:39;;;;;;;6.03;5.43;;;21.80;49.60;;;;;;5019804;28;20471;-60
2022/10/28 12:09:20;;;;;;;6.47;5.93;;;21.80;49.70;;;;;;5033565;28;20460;-63
2022/10/28 12:12:15;;;;;;;5.90;5.40;;;21.80;49.70;;;;;;5028261;28;20982;-64
2022/10/28 12:15:38;;;;;;;6.03;5.50;;;21.80;49.70;;;;;;5034031;28;20562;-63
2022/10/28 12:18:31;;;;;;;6.07;5.53;;;21.80;49.60;;;;;;5002529;28;20993;-62
2022/10/28 12:21:14;;;;;;;9.10;6.00;;;21.80;49.70;;;;;;4983788;28;20480;-63
2022/10/28 12:23:41;;;;;;;5.57;5.10;;;21.80;49.70;;;;;;5018547;28;20467;-63
2022/10/28 12:26:11;;;;;;;7.27;6.30;;;21.80;49.80;;;;;;5026421;28;20495;-60
2022/10/28 12:28:42;;;;;;;7.40;6.70;;;21.90;49.80;;;;;;5031526;28;20550;-59
2022/10/28 12:31:31;;;;;;;8.17;5.70;;;21.80;49.70;;;;;;5032057;28;20804;-58
2022/10/28 12:33:59;;;;;;;6.97;6.37;;;21.80;49.70;;;;;;5016816;28;20912;-64
2022/10/28 12:36:54;;;;;;;6.83;6.33;;;21.90;49.80;;;;;;5020433;28;20482;-59
2022/10/28 12:39:58;;;;;;;7.40;6.47;;;21.80;49.80;;;;;;5021857;28;20463;-64
2022/10/28 12:42:34;;;;;;;6.87;6.17;;;21.80;49.70;;;;;;4989695;28;20453;-65
2022/10/28 12:45:05;;;;;;;6.37;5.87;;;21.80;49.70;;;;;;5012294;28;20537;-64
2022/10/28 12:48:00;;;;;;;6.50;5.90;;;21.90;49.80;;;;;;5030325;28;20581;-62
2022/10/28 12:50:46;;;;;;;6.27;5.77;;;21.90;49.90;;;;;;5025180;28;20467;-63
2022/10/28 12:53:14;;;;;;;6.93;6.23;;;21.90;49.80;;;;;;5037228;28;21678;-64
2022/10/28 12:56:00;;;;;;;7.17;6.47;;;21.90;49.80;;;;;;5030650;28;20446;-64
2022/10/28 12:58:51;;;;;;;6.27;5.77;;;21.90;49.80;;;;;;5032396;28;20490;-61
2022/10/28 13:01:20;;;;;;;6.30;5.70;;;21.90;49.90;;;;;;5033502;28;20951;-66
2022/10/28 13:03:48;;;;;;;7.33;6.43;;;21.90;49.90;;;;;;5035828;28;20463;-63
2022/10/28 13:06:22;;;;;;;8.50;7.53;;;21.90;49.90;;;;;;5026366;28;20525;-61
2022/10/28 13:09:06;;;;;;;7.63;6.93;;;21.90;49.90;;;;;;5037673;28;20487;-65
2022/10/28 13:11:50;;;;;;;7.57;6.87;;;21.90;49.90;;;;;;5032016;28;20486;-64